Time,TemperatureF,DewpointF,PressureIn,WindDirection,WindDirectionDegrees,WindSpeedMPH,WindSpeedGustMPH,Humidity,HourlyPrecipIn,Conditions,Clouds,dailyrainin,SoftwareType,DateUTC
2013-07-31 00:14:00,77.5,74.0,29.96,NE,51,0.0,0.0,90,0.00,,,0.00,weatherlink.com 1.10,2013-07-31 05:14:00,
2013-07-31 00:29:00,77.5,75.0,29.96,SE,146,0.0,1.0,91,0.00,,,0.00,weatherlink.com 1.10,2013-07-31 05:29:00,
2013-07-31 00:44:00,77.4,75.0,29.96,SSE,156,0.0,1.0,91,0.00,,,0.00,weatherlink.com 1.10,2013-07-31 05:44:00,
2013-07-31 00:59:00,76.8,74.0,29.96,SSE,156,0.0,0.0,91,0.00,,,0.00,weatherlink.com 1.10,2013-07-31 05:59:00,
2013-07-31 01:14:00,76.5,74.0,29.96,SSE,156,0.0,1.0,92,0.00,,,0.00,weatherlink.com 1.10,2013-07-31 06:14:00,
2013-07-31 01:29:00,76.2,74.0,29.96,SSE,157,0.0,0.0,92,0.00,,,0.00,weatherlink.com 1.10,2013-07-31 06:29:00,
2013-07-31 01:44:00,75.6,74.0,29.96,SSE,157,0.0,0.0,93,0.00,,,0.00,weatherlink.com 1.10,2013-07-31 06:44:00,
2013-07-31 02:00:00,75.4,73.0,29.95,SSE,160,0.0,0.0,93,0.00,,,0.00,weatherlink.com 1.10,2013-07-31 07:00:00,
2013-07-31 02:15:00,75.0,73.0,29.95,SSE,159,0.0,0.0,94,0.00,,,0.00,weatherlink.com 1.10,2013-07-31 07:15:00,
2013-07-31 02:30:00,74.7,73.0,29.95,SSE,159,0.0,0.0,94,0.00,,,0.00,weatherlink.com 1.10,2013-07-31 07:30:00,
2013-07-31 02:45:00,74.4,73.0,29.95,SSE,160,0.0,0.0,95,0.00,,,0.00,weatherlink.com 1.10,2013-07-31 07:45:00,
2013-07-31 03:00:00,74.0,73.0,29.95,SSE,159,0.0,0.0,95,0.00,,,0.00,weatherlink.com 1.10,2013-07-31 08:00:00,
2013-07-31 03:15:00,73.8,72.0,29.95,SSE,160,0.0,0.0,95,0.00,,,0.00,weatherlink.com 1.10,2013-07-31 08:15:00,
2013-07-31 03:30:00,74.0,73.0,29.95,SSE,159,0.0,0.0,96,0.00,,,0.00,weatherlink.com 1.10,2013-07-31 08:30:00,
2013-07-31 03:45:00,74.2,73.0,29.95,SSE,159,0.0,0.0,96,0.00,,,0.00,weatherlink.com 1.10,2013-07-31 08:45:00,
2013-07-31 04:00:00,74.4,73.0,29.95,SSE,159,0.0,1.0,96,0.00,,,0.00,weatherlink.com 1.10,2013-07-31 09:00:00,
2013-07-31 04:15:00,74.7,73.0,29.95,SSE,158,0.0,0.0,95,0.00,,,0.00,weatherlink.com 1.10,2013-07-31 09:15:00,
2013-07-31 04:30:00,74.5,73.0,29.95,SSE,159,0.0,0.0,95,0.00,,,0.00,weatherlink.com 1.10,2013-07-31 09:30:00,
2013-07-31 04:45:00,74.1,73.0,29.96,SSE,159,0.0,0.0,95,0.00,,,0.00,weatherlink.com 1.10,2013-07-31 09:45:00,
2013-07-31 05:00:00,73.8,72.0,29.96,SSE,159,0.0,0.0,95,0.00,,,0.00,weatherlink.com 1.10,2013-07-31 10:00:00,
2013-07-31 05:15:00,73.4,72.0,29.96,SSE,159,0.0,1.0,95,0.00,,,0.00,weatherlink.com 1.10,2013-07-31 10:15:00,
2013-07-31 05:30:00,73.2,72.0,29.97,SSE,159,0.0,1.0,96,0.00,,,0.00,weatherlink.com 1.10,2013-07-31 10:30:00,
2013-07-31 05:45:00,73.1,72.0,29.97,SSE,159,0.0,0.0,96,0.00,,,0.00,weatherlink.com 1.10,2013-07-31 10:45:00,
2013-07-31 06:00:00,72.7,72.0,29.97,SSE,159,0.0,0.0,96,0.00,,,0.00,weatherlink.com 1.10,2013-07-31 11:00:00,
2013-07-31 06:15:00,72.6,71.0,29.98,SW,219,0.0,0.0,96,0.00,,,0.00,weatherlink.com 1.10,2013-07-31 11:15:00,
2013-07-31 06:30:00,71.8,71.0,29.98,SW,219,0.0,0.0,96,0.00,,,0.00,weatherlink.com 1.10,2013-07-31 11:30:00,
2013-07-31 06:45:00,-999.0,-99.9,29.99,North,-999,-999.0,-999.0,-999,0.00,,,0.00,weatherlink.com 1.10,2013-07-31 11:45:00,
2013-07-31 07:00:00,-999.0,-99.9,30.00,North,-999,-999.0,-999.0,-999,0.00,,,0.00,weatherlink.com 1.10,2013-07-31 12:00:00,
2013-07-31 07:15:00,-999.0,-99.9,30.00,North,-999,-999.0,-999.0,-999,0.00,,,0.00,weatherlink.com 1.10,2013-07-31 12:15:00,
2013-07-31 07:30:00,-999.0,-99.9,30.01,North,-999,-999.0,-999.0,-999,0.00,,,0.00,weatherlink.com 1.10,2013-07-31 12:30:00,
2013-07-31 07:45:00,74.5,74.0,30.01,SW,221,0.0,0.0,97,0.00,,,0.00,weatherlink.com 1.10,2013-07-31 12:45:00,
2013-07-31 08:00:00,76.9,76.0,30.01,SSW,194,0.0,1.0,97,0.00,,,0.00,weatherlink.com 1.10,2013-07-31 13:00:00,
2013-07-31 08:15:00,79.6,77.0,30.01,ENE,59,0.0,1.0,90,0.00,,,0.00,weatherlink.com 1.10,2013-07-31 13:15:00,
2013-07-31 08:30:00,79.8,76.0,30.01,NE,47,0.0,2.0,88,0.00,,,0.00,weatherlink.com 1.10,2013-07-31 13:30:00,
2013-07-31 08:45:00,80.6,76.0,30.01,NNE,33,1.0,3.0,85,0.00,,,0.00,weatherlink.com 1.10,2013-07-31 13:45:00,
2013-07-31 09:00:00,81.8,76.0,30.01,NE,40,0.0,2.0,83,0.00,,,0.00,weatherlink.com 1.10,2013-07-31 14:00:00,
2013-07-31 09:15:00,82.0,76.0,30.02,North,5,0.0,4.0,83,0.00,,,0.00,weatherlink.com 1.10,2013-07-31 14:15:00,
2013-07-31 09:30:00,83.0,76.0,30.02,ENE,59,1.0,3.0,80,0.00,,,0.00,weatherlink.com 1.10,2013-07-31 14:30:00,
2013-07-31 09:45:00,83.9,76.0,30.02,NNE,18,2.0,4.0,77,0.00,,,0.00,weatherlink.com 1.10,2013-07-31 14:45:00,
2013-07-31 10:00:00,84.8,76.0,30.02,ENE,72,1.0,7.0,74,0.00,,,0.00,weatherlink.com 1.10,2013-07-31 15:00:00,
2013-07-31 10:15:00,85.4,77.0,30.02,East,89,2.0,6.0,75,0.00,,,0.00,weatherlink.com 1.10,2013-07-31 15:15:00,
2013-07-31 10:30:00,86.6,77.0,30.02,NNE,29,3.0,5.0,73,0.00,,,0.00,weatherlink.com 1.10,2013-07-31 15:30:00,
2013-07-31 10:45:00,87.2,77.0,30.02,North,7,6.0,9.0,71,0.00,,,0.00,weatherlink.com 1.10,2013-07-31 15:45:00,
2013-07-31 11:00:00,87.5,77.0,30.02,NE,39,5.0,7.0,72,0.00,,,0.00,weatherlink.com 1.10,2013-07-31 16:00:00,
2013-07-31 11:15:00,87.6,78.0,30.02,NNE,18,5.0,8.0,73,0.00,,,0.00,weatherlink.com 1.10,2013-07-31 16:15:00,
2013-07-31 11:30:00,88.4,78.0,30.02,North,349,3.0,7.0,71,0.00,,,0.00,weatherlink.com 1.10,2013-07-31 16:30:00,
2013-07-31 11:45:00,88.7,78.0,30.01,NE,49,6.0,9.0,71,0.00,,,0.00,weatherlink.com 1.10,2013-07-31 16:45:00,
2013-07-31 12:00:00,88.9,79.0,30.01,North,5,6.0,12.0,72,0.00,,,0.00,weatherlink.com 1.10,2013-07-31 17:00:00,
2013-07-31 12:15:00,89.4,79.0,30.01,North,5,6.0,10.0,72,0.00,,,0.00,weatherlink.com 1.10,2013-07-31 17:15:00,
2013-07-31 12:30:00,89.0,78.0,30.00,NNE,29,2.0,8.0,71,0.00,,,0.00,weatherlink.com 1.10,2013-07-31 17:30:00,
2013-07-31 12:45:00,90.1,78.0,30.00,NE,46,5.0,11.0,67,0.00,,,0.00,weatherlink.com 1.10,2013-07-31 17:45:00,
2013-07-31 13:00:00,90.9,79.0,30.00,ENE,64,5.0,11.0,69,0.00,,,0.00,weatherlink.com 1.10,2013-07-31 18:00:00,
2013-07-31 13:15:00,91.0,77.0,29.99,NNE,18,6.0,14.0,63,0.00,,,0.00,weatherlink.com 1.10,2013-07-31 18:15:00,
2013-07-31 13:30:00,90.4,78.0,29.99,ENE,59,7.0,8.0,68,0.00,,,0.00,weatherlink.com 1.10,2013-07-31 18:30:00,
2013-07-31 13:45:00,90.4,79.0,29.99,NE,41,3.0,7.0,69,0.00,,,0.00,weatherlink.com 1.10,2013-07-31 18:45:00,
2013-07-31 14:00:00,90.1,79.0,29.99,NNE,13,5.0,9.0,70,0.00,,,0.00,weatherlink.com 1.10,2013-07-31 19:00:00,
2013-07-31 14:16:00,91.3,79.0,29.98,North,4,5.0,8.0,67,0.00,,,0.00,weatherlink.com 1.10,2013-07-31 19:16:00,
2013-07-31 14:31:00,90.9,78.0,29.99,NNE,19,4.0,8.0,66,0.00,,,0.00,weatherlink.com 1.10,2013-07-31 19:31:00,
2013-07-31 14:46:00,91.0,77.0,29.98,North,349,4.0,7.0,64,0.00,,,0.00,weatherlink.com 1.10,2013-07-31 19:46:00,
2013-07-31 15:01:00,92.4,79.0,29.98,North,352,4.0,9.0,66,0.00,,,0.00,weatherlink.com 1.10,2013-07-31 20:01:00,
2013-07-31 15:16:00,92.2,77.0,29.97,NE,34,0.0,7.0,61,0.00,,,0.00,weatherlink.com 1.10,2013-07-31 20:16:00,
2013-07-31 15:31:00,92.8,78.0,29.97,WNW,301,1.0,7.0,62,0.00,,,0.00,weatherlink.com 1.10,2013-07-31 20:31:00,
2013-07-31 15:46:00,94.3,77.0,29.97,NE,47,4.0,5.0,58,0.00,,,0.00,weatherlink.com 1.10,2013-07-31 20:46:00,
2013-07-31 16:01:00,93.3,77.0,29.96,NNE,18,4.0,7.0,60,0.00,,,0.00,weatherlink.com 1.10,2013-07-31 21:01:00,
2013-07-31 16:16:00,93.6,77.0,29.95,NE,41,4.0,6.0,59,0.00,,,0.00,weatherlink.com 1.10,2013-07-31 21:16:00,
2013-07-31 16:31:00,91.9,77.0,29.95,ESE,110,0.0,5.0,62,0.00,,,0.00,weatherlink.com 1.10,2013-07-31 21:31:00,
2013-07-31 16:46:00,92.7,76.0,29.95,NNW,344,2.0,7.0,58,0.00,,,0.00,weatherlink.com 1.10,2013-07-31 21:46:00,
2013-07-31 17:01:00,93.2,76.0,29.94,NNW,334,4.0,7.0,58,0.00,,,0.00,weatherlink.com 1.10,2013-07-31 22:01:00,
2013-07-31 17:16:00,92.7,77.0,29.94,NE,36,2.0,9.0,60,0.00,,,0.00,weatherlink.com 1.10,2013-07-31 22:16:00,
2013-07-31 17:31:00,93.2,78.0,29.93,North,359,6.0,7.0,61,0.00,,,0.00,weatherlink.com 1.10,2013-07-31 22:31:00,
2013-07-31 17:46:00,91.9,79.0,29.94,ENE,58,2.0,8.0,65,0.00,,,0.00,weatherlink.com 1.10,2013-07-31 22:46:00,
2013-07-31 18:16:00,91.5,77.0,29.93,NNW,341,5.0,9.0,62,0.00,,,0.00,weatherlink.com 1.10,2013-07-31 23:16:00,
2013-07-31 18:31:00,90.9,76.0,29.93,NNE,27,4.0,7.0,62,0.00,,,0.00,weatherlink.com 1.10,2013-07-31 23:31:00,
2013-07-31 18:46:00,90.5,76.0,29.93,NNE,27,4.0,6.0,63,0.00,,,0.00,weatherlink.com 1.10,2013-07-31 23:46:00,
2013-07-31 19:01:00,90.3,76.0,29.94,North,8,4.0,7.0,63,0.00,,,0.00,weatherlink.com 1.10,2013-08-01 00:01:00,
2013-07-31 19:16:00,89.9,76.0,29.94,NNE,22,3.0,6.0,64,0.00,,,0.00,weatherlink.com 1.10,2013-08-01 00:16:00,
2013-07-31 19:31:00,89.4,76.0,29.94,NE,41,2.0,5.0,64,0.00,,,0.00,weatherlink.com 1.10,2013-08-01 00:31:00,
2013-07-31 19:46:00,88.2,76.0,29.94,NE,41,0.0,3.0,68,0.00,,,0.00,weatherlink.com 1.10,2013-08-01 00:46:00,
2013-07-31 20:16:00,84.7,76.0,29.95,NE,40,0.0,0.0,75,0.00,,,0.00,weatherlink.com 1.10,2013-08-01 01:16:00,
2013-07-31 20:31:00,83.5,76.0,29.96,NE,40,0.0,2.0,77,0.00,,,0.00,weatherlink.com 1.10,2013-08-01 01:31:00,
2013-07-31 20:46:00,82.9,75.0,29.96,NNE,18,0.0,1.0,77,0.00,,,0.00,weatherlink.com 1.10,2013-08-01 01:46:00,
2013-07-31 21:16:00,80.8,75.0,29.95,NNE,18,0.0,0.0,81,0.00,,,0.00,weatherlink.com 1.10,2013-08-01 02:16:00,
2013-07-31 21:31:00,79.3,74.0,29.95,NNE,18,0.0,0.0,84,0.00,,,0.00,weatherlink.com 1.10,2013-08-01 02:31:00,
2013-07-31 21:46:00,78.4,74.0,29.96,NNE,19,0.0,0.0,86,0.00,,,0.00,weatherlink.com 1.10,2013-08-01 02:46:00,
2013-07-31 22:01:00,77.7,74.0,29.97,NNE,18,0.0,0.0,87,0.00,,,0.00,weatherlink.com 1.10,2013-08-01 03:01:00,
2013-07-31 22:31:00,77.5,74.0,29.97,NNE,18,0.0,0.0,90,0.00,,,0.00,weatherlink.com 1.10,2013-08-01 03:31:00,
2013-07-31 22:46:00,77.4,74.0,29.98,NNE,18,0.0,0.0,89,0.00,,,0.00,weatherlink.com 1.10,2013-08-01 03:46:00,
2013-07-31 23:01:00,76.9,74.0,29.99,NNE,18,0.0,0.0,90,0.00,,,0.00,weatherlink.com 1.10,2013-08-01 04:01:00,
2013-07-31 23:31:00,77.4,74.0,29.99,NNE,19,0.0,0.0,89,0.00,,,0.00,weatherlink.com 1.10,2013-08-01 04:31:00,
2013-07-31 23:46:00,77.5,74.0,29.99,NNE,19,0.0,0.0,89,0.00,,,0.00,weatherlink.com 1.10,2013-08-01 04:46:00,